Terminal Aerodrome Forecast
Issued by NWS

Home | Current Version | Previous Version | Text Only | Print | Product List | Glossary On
Versions: 1 2 3 4 5 6 7 8 9 10 11 12 13 14
000
FTUS44 KEPZ 212330
TAFLRU
TAF
KLRU 212330Z 2200/2224 16012KT P6SM BKN060
      TEMPO 2200/2202 16012G20KT
     FM220300 20009KT P6SM SCT100
     FM221700 23016G26KT P6SM BKN080 BKN130=

USA.gov is the U.S. government's official web portal to all federal, state and local government web resources and services.